Greenock, United Kingdom
Current Conditions -  °F | °C
As of 7:20 AM on Saturday 25 Oct 2014 (Local Time) from EGPF Reporting Station
Light Rain Light Rain  
Wind Chill: 10°   Ceiling: 1500
Heat Index: 10°   Visibility: 4mi
Dew Point:   Wind: 22mph
Humidity: 94%   Direction: 220°SW
Pressure: 29.65"   Gusts: NA
Location:  55.95°N, 4.76°W
Report Text: EGPF 250620Z AUTO 22019KT 7000 -RA BKN015/// OVC026/// //////TCU 10/09 Q1004 RERA
Loading
Personal Weather Stations






























Interactive Weather Map
Tropical Storm Tracking
New forecast layout! Learn more

10-Day Weather Forecast

Advertisements
Track Severe Weather on mobile